Alden, Wisconsin
Current Conditions -  °F | °C
As of 9:15 AM on Monday 24 Nov 2014 (Local Time) from KRNH Reporting Station
Haze Haze  
Wind Chill: 12°   Ceiling: 1000
Heat Index: 26°   Visibility: 5mi
Dew Point: 25°   Wind: 18mph
Humidity: 96%   Direction: 310°NW
Pressure: 29.34"   Gusts: 28mph
Location:  45.1804°N, 92.551°W
Report Text: KRNH 241515Z AUTO 31016G24KT 5SM BR OVC010 M03/M04 A2934 RMK AO2 T10351041
Loading
Personal Weather Stations






























Interactive Weather Map New forecast layout! Learn more

10-Day Weather Forecast

Advertisements
Track Severe Weather on mobile